Ft Sturla — IBXV — position and weather

sailwx.info

Track history (hours):
 
Tides and Currents Weather Stations Pressure Air Temp Water Temp Dewpoint Dewpoint Depression Visibility Wind Speed Wind Dir Waves Ship Positions

Ft Sturla

Last reported at 2015-Jul-24 13:34 UTC. Time now 2015-Jul-30 00:02 UTC.
Position N 40°53' E 008°02'.

Length 120 m; draft 5.7 m.

Type: Ship (hazmat cat C). MMSI: 247282200.

Date/timePositionNaut miles runAvg speedWind from/ knotsBaromVisibWave heightAir tempDewpointWater temp
2015-Jul-24 13:34N 40°53' E 008°02'1111.3
2015-Jul-24 12:34N 40°42' E 008°01'12210.2
2015-Jul-24 00:33N 38°44' E 008°43'1811.8
2015-Jul-23 23:03N 38°37' E 009°04'3011.7
2015-Jul-23 20:27N 38°25' E 009°40'1111.8
2015-Jul-23 19:33N 38°21' E 009°52'1212.1
2015-Jul-23 18:33N 38°16' E 010°06'17911.7
2015-Jul-23 03:18N 37°05' E 013°33'912.4
2015-Jul-23 02:33N 37°00' E 013°43'1212.4
2015-Jul-23 01:34N 36°55' E 013°57'1312.7
2015-Jul-23 00:33N 36°49' E 014°11'1312.8
2015-Jul-22 23:34N 36°43' E 014°26'1312.6
2015-Jul-22 22:33N 36°40' E 014°41'1212.2
2015-Jul-22 21:33N 36°37' E 014°56'1212.1
2015-Jul-22 20:33N 36°34' E 015°10'1212.5
2015-Jul-22 19:33N 36°46' E 015°17'1312.9
2015-Jul-22 18:32N 36°57' E 015°24'  
2015-Jul-19 14:33N 37°14' E 015°12'8 0.2
2015-Jul-18 07:23N 37°14' E 015°22'1112.8
2015-Jul-18 06:33N 37°22' E 015°31'1312.9
2015-Jul-18 05:33N 37°31' E 015°42'1313.0
2015-Jul-18 04:33N 37°41' E 015°53'  
Track history (hours):
 
Tides and Currents Weather Stations Pressure Air Temp Water Temp Dewpoint Dewpoint Depression Visibility Wind Speed Wind Dir Waves Ship Positions

Ft Sturla

Last reported at 2015-Jul-24 13:34 UTC. Time now 2015-Jul-30 00:02 UTC.
Position N 40°53' E 008°02'.

Length 120 m; draft 5.7 m.

Type: Ship (hazmat cat C). MMSI: 247282200.

Date/timePositionNaut miles runAvg speedWind from/ knotsBaromVisibWave heightAir tempDewpointWater temp
2015-Jul-24 13:34N 40°53' E 008°02'1111.3
2015-Jul-24 12:34N 40°42' E 008°01'12210.2
2015-Jul-24 00:33N 38°44' E 008°43'1811.8
2015-Jul-23 23:03N 38°37' E 009°04'3011.7
2015-Jul-23 20:27N 38°25' E 009°40'1111.8
2015-Jul-23 19:33N 38°21' E 009°52'1212.1
2015-Jul-23 18:33N 38°16' E 010°06'17911.7
2015-Jul-23 03:18N 37°05' E 013°33'912.4
2015-Jul-23 02:33N 37°00' E 013°43'1212.4
2015-Jul-23 01:34N 36°55' E 013°57'1312.7
2015-Jul-23 00:33N 36°49' E 014°11'1312.8
2015-Jul-22 23:34N 36°43' E 014°26'1312.6
2015-Jul-22 22:33N 36°40' E 014°41'1212.2
2015-Jul-22 21:33N 36°37' E 014°56'1212.1
2015-Jul-22 20:33N 36°34' E 015°10'1212.5
2015-Jul-22 19:33N 36°46' E 015°17'1312.9
2015-Jul-22 18:32N 36°57' E 015°24'  
2015-Jul-19 14:33N 37°14' E 015°12'8 0.2
2015-Jul-18 07:23N 37°14' E 015°22'1112.8
2015-Jul-18 06:33N 37°22' E 015°31'1312.9
2015-Jul-18 05:33N 37°31' E 015°42'1313.0
2015-Jul-18 04:33N 37°41' E 015°53'  

Dump ship's entire track history